createdAt,value
2022-11-20T00:00:54.536Z,224.02
2022-11-20T00:03:22.545Z,226.25
2022-11-20T00:05:50.216Z,208.43
2022-11-20T00:08:18.834Z,229.25
2022-11-20T00:10:46.495Z,225.73
2022-11-20T00:13:14.218Z,226.48
2022-11-20T00:15:41.920Z,228.98
2022-11-20T00:20:38.447Z,289.45
2022-11-20T00:23:06.884Z,231.05
2022-11-20T00:25:35.928Z,227.68
2022-11-20T00:28:03.631Z,224.48
2022-11-20T00:30:31.305Z,228.40
2022-11-20T00:32:59.057Z,230.02
2022-11-20T00:35:28.137Z,235.15
2022-11-20T00:37:55.812Z,234.15
2022-11-20T00:40:23.513Z,240.93
2022-11-20T00:42:51.144Z,240.70
2022-11-20T00:45:18.861Z,244.10
2022-11-20T00:47:46.507Z,236.52
2022-11-20T00:50:14.193Z,241.43
2022-11-20T00:52:43.493Z,242.88
2022-11-20T00:55:11.141Z,246.57
2022-11-20T00:57:38.814Z,241.57
2022-11-20T01:00:08.075Z,245.13
2022-11-20T01:02:35.804Z,236.55
2022-11-20T01:05:03.537Z,241.43
2022-11-20T01:07:31.226Z,238.30
2022-11-20T01:10:00.335Z,232.27
2022-11-20T01:12:28.067Z,238.35
2022-11-20T01:14:55.725Z,238.52
2022-11-20T01:17:23.464Z,236.50
2022-11-20T01:19:51.676Z,241.32
2022-11-20T01:22:19.343Z,243.45
2022-11-20T01:24:46.994Z,239.88
2022-11-20T01:27:16.073Z,239.20
2022-11-20T01:29:43.786Z,232.45
2022-11-20T01:32:11.475Z,246.85
2022-11-20T01:34:39.209Z,244.00
2022-11-20T01:37:06.909Z,247.90
2022-11-20T01:39:34.583Z,252.93
2022-11-20T01:42:19.908Z,238.35
2022-11-20T01:44:54.892Z,240.93
2022-11-20T01:47:26.400Z,244.07
2022-11-20T01:49:58.153Z,246.23
2022-11-20T01:52:30.767Z,241.48
2022-11-20T01:55:01.301Z,237.93
2022-11-20T01:57:30.553Z,234.48
2022-11-20T02:00:07.258Z,239.88
2022-11-20T02:02:35.156Z,230.38
2022-11-20T02:05:05.670Z,235.43
2022-11-20T02:07:33.724Z,232.98
2022-11-20T02:10:01.441Z,238.55
2022-11-20T02:12:47.112Z,237.98
2022-11-20T02:15:16.355Z,254.20
2022-11-20T02:17:44.011Z,238.93
2022-11-20T02:20:12.549Z,239.23
2022-11-20T02:22:46.475Z,238.32
2022-11-20T02:25:16.385Z,245.68
2022-11-20T02:27:44.055Z,238.88
2022-11-20T02:30:12.973Z,243.15
2022-11-20T02:32:40.854Z,243.25
2022-11-20T02:35:10.036Z,244.00
2022-11-20T02:37:39.587Z,237.40
2022-11-20T02:40:08.711Z,258.88
2022-11-20T02:42:38.218Z,241.55
2022-11-20T02:45:06.701Z,247.82
2022-11-20T02:47:34.507Z,250.20
2022-11-20T02:50:02.321Z,244.93
2022-11-20T02:52:30.078Z,249.30
2022-11-20T02:54:57.768Z,249.15
2022-11-20T02:57:25.498Z,246.98
2022-11-20T02:59:54.557Z,251.38
2022-11-20T03:02:22.532Z,251.07
2022-11-20T03:04:50.217Z,246.57
2022-11-20T03:07:17.925Z,252.38
2022-11-20T03:09:45.674Z,251.90
2022-11-20T03:12:13.399Z,250.10
2022-11-20T03:14:41.104Z,248.88
2022-11-20T03:17:10.327Z,251.15
2022-11-20T03:19:38.036Z,246.20
2022-11-20T03:22:05.718Z,238.07
2022-11-20T03:24:33.413Z,233.65
2022-11-20T03:27:01.176Z,240.77
2022-11-20T03:29:29.011Z,240.75
2022-11-20T03:31:56.736Z,237.40
2022-11-20T03:34:25.952Z,248.18
2022-11-20T03:36:53.587Z,239.43
2022-11-20T03:39:21.639Z,249.43
2022-11-20T03:41:49.544Z,252.63
2022-11-20T03:44:17.218Z,244.85
2022-11-20T03:46:44.918Z,249.77
2022-11-20T03:49:12.598Z,245.68
2022-11-20T03:51:41.719Z,243.88
2022-11-20T03:54:10.780Z,253.65
2022-11-20T03:56:40.517Z,240.70
2022-11-20T03:59:08.504Z,248.77
2022-11-20T04:01:37.864Z,238.15
2022-11-20T04:04:06.029Z,240.35
2022-11-20T04:06:37.749Z,236.93
2022-11-20T04:09:07.577Z,235.27
2022-11-20T04:11:36.657Z,236.25
2022-11-20T04:14:05.767Z,271.42
2022-11-20T04:16:36.404Z,238.88
2022-11-20T04:19:05.764Z,251.88
2022-11-20T04:21:33.486Z,233.88
2022-11-20T04:24:01.229Z,238.20
2022-11-20T04:26:30.975Z,242.02
2022-11-20T04:28:59.220Z,241.35
2022-11-20T04:31:28.580Z,237.68
2022-11-20T04:33:56.811Z,238.57
2022-11-20T04:36:26.356Z,236.00
2022-11-20T04:38:56.988Z,239.60
2022-11-20T04:41:26.485Z,243.18
2022-11-20T04:44:00.061Z,234.75
2022-11-20T04:46:29.375Z,236.32
2022-11-20T04:48:57.235Z,241.27
2022-11-20T04:51:25.483Z,232.68
2022-11-20T04:53:53.319Z,242.75
2022-11-20T04:56:21.045Z,241.13
2022-11-20T04:58:48.789Z,240.30
2022-11-20T05:01:20.252Z,245.13
2022-11-20T05:03:48.095Z,247.07
2022-11-20T05:06:17.725Z,248.02
2022-11-20T05:08:45.448Z,247.90
2022-11-20T05:11:14.912Z,253.80
2022-11-20T05:13:42.856Z,250.43
2022-11-20T05:16:12.731Z,247.27
2022-11-20T05:18:42.500Z,241.93
2022-11-20T05:21:11.006Z,250.20
2022-11-20T05:23:39.058Z,251.65
2022-11-20T05:26:08.056Z,254.82
2022-11-20T05:28:35.976Z,241.80
2022-11-20T05:31:07.963Z,246.45
2022-11-20T05:33:36.065Z,235.30
2022-11-20T05:36:05.480Z,244.45
2022-11-20T05:38:33.292Z,243.05
2022-11-20T05:41:05.940Z,250.30
2022-11-20T05:43:35.738Z,238.43
2022-11-20T05:46:03.701Z,257.13
2022-11-20T05:48:32.426Z,250.80
2022-11-20T05:51:00.225Z,253.45
2022-11-20T05:53:29.419Z,251.75
2022-11-20T05:56:01.176Z,250.50
2022-11-20T05:58:29.125Z,252.15
2022-11-20T06:00:57.003Z,248.52
2022-11-20T06:03:24.759Z,253.95
2022-11-20T06:05:52.472Z,257.77
2022-11-20T06:08:20.175Z,256.55
2022-11-20T06:10:49.207Z,259.15
2022-11-20T06:13:16.898Z,248.25
2022-11-20T06:15:44.568Z,237.65
2022-11-20T06:18:12.199Z,248.77
2022-11-20T06:20:42.230Z,245.13
2022-11-20T06:23:10.089Z,260.92
2022-11-20T06:25:39.605Z,239.23
2022-11-20T06:28:08.767Z,237.88
2022-11-20T06:30:36.669Z,265.90
2022-11-20T06:33:04.483Z,259.15
2022-11-20T06:35:32.265Z,251.27
2022-11-20T06:37:59.948Z,253.68
2022-11-20T06:40:27.625Z,269.52
2022-11-20T06:42:56.010Z,261.48
2022-11-20T06:45:25.035Z,257.05
2022-11-20T06:47:52.651Z,250.93
2022-11-20T06:50:20.352Z,245.52
2022-11-20T06:52:48.076Z,266.15
2022-11-20T06:55:15.812Z,250.07
2022-11-20T06:57:43.436Z,259.52
2022-11-20T07:00:12.487Z,259.30
2022-11-20T07:02:41.561Z,257.83
2022-11-20T07:05:09.587Z,254.60
2022-11-20T07:07:37.307Z,256.55
2022-11-20T07:10:05.796Z,255.73
2022-11-20T07:12:33.495Z,256.52
2022-11-20T07:15:01.160Z,256.77
2022-11-20T07:17:28.799Z,256.48
2022-11-20T07:19:57.861Z,255.52
2022-11-20T07:22:25.585Z,249.25
2022-11-20T07:24:53.250Z,249.70
2022-11-20T07:27:20.881Z,244.90
2022-11-20T07:29:48.596Z,258.65
2022-11-20T07:32:16.289Z,272.20
2022-11-20T07:34:44.000Z,259.52
2022-11-20T07:37:13.044Z,268.90
2022-11-20T07:39:40.763Z,265.83
2022-11-20T07:42:08.659Z,269.58
2022-11-20T07:44:36.603Z,268.83
2022-11-20T07:47:04.420Z,268.65
2022-11-20T07:49:32.418Z,268.42
2022-11-20T07:52:04.345Z,271.85
2022-11-20T07:54:34.269Z,268.20
2022-11-20T07:57:01.924Z,271.77
2022-11-20T07:59:29.623Z,291.33
2022-11-20T08:01:57.309Z,272.20
2022-11-20T08:04:25.006Z,269.15
2022-11-20T08:06:54.196Z,280.25
